createdAt,value
2023-10-09T00:01:11.046Z,29.40
2023-10-09T00:03:39.203Z,32.53
2023-10-09T00:06:06.533Z,31.85
2023-10-09T00:08:33.305Z,27.15
2023-10-09T00:11:22.227Z,26.67
2023-10-09T00:13:53.420Z,27.25
2023-10-09T00:16:33.861Z,27.63
2023-10-09T00:19:20.095Z,24.90
2023-10-09T00:21:48.477Z,25.30
2023-10-09T00:24:17.646Z,29.70
2023-10-09T00:26:47.446Z,27.40
2023-10-09T00:29:23.119Z,29.13
2023-10-09T00:32:07.409Z,32.30
2023-10-09T00:34:40.730Z,29.80
2023-10-09T00:37:17.613Z,27.92
2023-10-09T00:39:45.274Z,32.53
2023-10-09T00:42:28.566Z,30.60
2023-10-09T00:44:55.800Z,31.52
2023-10-09T00:47:23.602Z,29.83
2023-10-09T00:50:00.387Z,31.30
2023-10-09T00:52:33.857Z,28.45
2023-10-09T00:55:05.617Z,28.73
2023-10-09T00:57:35.222Z,27.10
2023-10-09T01:00:02.044Z,27.80
2023-10-09T01:02:37.102Z,30.05
2023-10-09T01:05:20.232Z,32.15
2023-10-09T01:07:51.792Z,28.38
2023-10-09T01:10:36.981Z,24.45
2023-10-09T01:13:04.398Z,30.15
2023-10-09T01:15:37.423Z,35.22
2023-10-09T01:18:05.946Z,26.65
2023-10-09T01:23:12.502Z,29.35
2023-10-09T01:25:46.592Z,34.55
2023-10-09T01:28:16.925Z,36.83
2023-10-09T01:30:44.303Z,33.72
2023-10-09T01:33:23.727Z,31.60
2023-10-09T01:35:53.594Z,35.95
2023-10-09T01:38:26.034Z,38.78
2023-10-09T01:40:53.196Z,38.22
2023-10-09T01:43:20.182Z,40.20
2023-10-09T01:45:47.909Z,36.55
2023-10-09T01:48:16.127Z,36.67
2023-10-09T01:50:49.844Z,33.75
2023-10-09T01:53:19.616Z,35.78
2023-10-09T01:55:47.106Z,32.15
2023-10-09T01:58:23.044Z,33.27
2023-10-09T02:00:54.825Z,35.40
2023-10-09T02:03:25.360Z,39.17
2023-10-09T02:05:54.719Z,37.05
2023-10-09T02:08:28.231Z,45.65
2023-10-09T02:10:57.197Z,40.30
2023-10-09T02:13:30.642Z,37.80
2023-10-09T02:16:14.041Z,36.08
2023-10-09T02:18:41.561Z,38.80
2023-10-09T02:21:08.945Z,39.60
2023-10-09T02:23:52.043Z,36.05
2023-10-09T02:26:26.118Z,37.05
2023-10-09T02:29:01.034Z,40.10
2023-10-09T02:31:36.616Z,38.83
2023-10-09T02:34:06.586Z,34.83
2023-10-09T02:36:36.177Z,47.88
2023-10-09T02:39:06.852Z,36.33
2023-10-09T02:41:35.579Z,37.10
2023-10-09T02:44:11.802Z,38.28
2023-10-09T02:46:41.152Z,39.97
2023-10-09T02:49:07.944Z,37.13
2023-10-09T02:51:34.964Z,37.80
2023-10-09T02:54:18.998Z,40.83
2023-10-09T02:56:49.045Z,38.58
2023-10-09T02:59:15.703Z,42.15
2023-10-09T03:01:42.458Z,32.78
2023-10-09T03:04:12.404Z,35.58
2023-10-09T03:06:50.949Z,39.85
2023-10-09T03:09:28.546Z,32.92
2023-10-09T03:12:03.895Z,34.78
2023-10-09T03:14:32.790Z,37.40
2023-10-09T03:19:30.781Z,31.17
2023-10-09T03:22:00.513Z,35.63
2023-10-09T03:24:28.913Z,34.00
2023-10-09T03:31:54.513Z,31.30
2023-10-09T03:34:21.049Z,30.83
2023-10-09T03:36:49.243Z,33.97
2023-10-09T03:39:34.862Z,32.67
2023-10-09T03:42:06.068Z,32.13
2023-10-09T03:44:35.068Z,32.95
2023-10-09T03:47:02.954Z,33.33
2023-10-09T03:49:30.620Z,32.17
2023-10-09T03:51:57.232Z,35.00
2023-10-09T03:54:25.639Z,34.03
2023-10-09T03:59:21.162Z,27.88
2023-10-09T04:01:54.217Z,34.63
2023-10-09T04:04:24.395Z,27.60
2023-10-09T04:06:54.954Z,32.85
2023-10-09T04:09:21.652Z,28.92
2023-10-09T04:11:58.755Z,29.20
2023-10-09T04:14:34.363Z,32.50
2023-10-09T04:17:27.507Z,27.05
2023-10-09T04:20:12.603Z,27.75
2023-10-09T04:22:41.108Z,30.00
2023-10-09T04:27:54.563Z,28.33
2023-10-09T04:30:21.114Z,24.67
2023-10-09T04:32:47.906Z,29.05
2023-10-09T04:35:20.506Z,25.98
2023-10-09T04:37:53.346Z,28.63
2023-10-09T04:40:38.130Z,24.20
2023-10-09T04:43:08.147Z,21.92
2023-10-09T04:45:56.796Z,27.42
2023-10-09T04:48:34.173Z,26.92
2023-10-09T04:51:33.822Z,25.70
2023-10-09T04:55:08.330Z,25.15
2023-10-09T04:58:40.471Z,26.73
2023-10-09T05:02:06.946Z,27.00
2023-10-09T05:05:45.394Z,29.17
2023-10-09T05:09:14.773Z,26.63
2023-10-09T05:12:47.634Z,25.55
2023-10-09T05:16:21.597Z,24.50
2023-10-09T05:20:02.267Z,26.40
2023-10-09T05:23:27.513Z,22.65
2023-10-09T05:26:52.612Z,24.15
2023-10-09T05:30:27.569Z,27.73
2023-10-09T05:34:02.510Z,27.73
2023-10-09T05:37:35.496Z,28.02
2023-10-09T05:41:27.553Z,25.17
2023-10-09T05:45:11.391Z,21.83
2023-10-09T05:48:40.073Z,24.17
2023-10-09T05:52:25.103Z,30.33
2023-10-09T05:56:08.597Z,31.40
2023-10-09T05:59:52.285Z,28.15
2023-10-09T06:03:20.504Z,27.13
2023-10-09T06:06:46.536Z,26.33
2023-10-09T06:10:21.348Z,25.08
2023-10-09T06:13:49.448Z,28.52
2023-10-09T06:17:14.562Z,28.05
2023-10-09T06:21:09.085Z,26.05
2023-10-09T06:24:52.788Z,28.73
2023-10-09T06:31:59.081Z,27.27
2023-10-09T06:35:32.406Z,25.55
2023-10-09T06:39:18.598Z,30.75
2023-10-09T06:42:43.761Z,28.75
2023-10-09T06:46:28.347Z,24.88
2023-10-09T06:50:26.911Z,28.17
2023-10-09T06:53:55.540Z,29.42
2023-10-09T06:57:43.482Z,22.83
2023-10-09T07:01:26.538Z,29.92
2023-10-09T07:04:55.904Z,25.55
2023-10-09T07:08:33.414Z,28.55
2023-10-09T07:12:04.291Z,27.05
2023-10-09T07:16:01.940Z,26.08
2023-10-09T07:19:43.096Z,23.48
2023-10-09T07:23:15.065Z,27.33
2023-10-09T07:26:54.133Z,26.83
2023-10-09T07:30:30.145Z,27.58
2023-10-09T07:33:58.518Z,31.48
2023-10-09T07:37:24.613Z,30.05
2023-10-09T07:41:21.120Z,32.88
2023-10-09T07:44:56.787Z,27.20
2023-10-09T07:48:26.940Z,29.17
2023-10-09T07:51:53.754Z,29.02
2023-10-09T07:55:30.742Z,29.15
2023-10-09T07:59:01.410Z,24.60
2023-10-09T08:02:35.288Z,27.27
2023-10-09T08:06:20.459Z,26.45
2023-10-09T08:09:48.906Z,25.33
2023-10-09T08:13:35.707Z,28.95
2023-10-09T08:17:16.774Z,28.43
2023-10-09T08:21:03.584Z,22.17
2023-10-09T08:24:42.292Z,25.52
2023-10-09T08:28:23.889Z,27.63
2023-10-09T08:31:58.039Z,26.95
2023-10-09T08:35:34.331Z,27.70
2023-10-09T08:39:00.314Z,25.33
2023-10-09T08:42:26.726Z,21.92
2023-10-09T08:46:02.200Z,28.02
2023-10-09T08:49:29.198Z,26.80
2023-10-09T08:52:56.305Z,28.88
2023-10-09T08:56:25.286Z,29.02
2023-10-09T08:59:59.767Z,28.38
2023-10-09T09:03:25.401Z,21.98
2023-10-09T09:06:57.633Z,22.95
2023-10-09T09:10:36.304Z,25.48
2023-10-09T09:14:08.624Z,23.30
2023-10-09T09:17:36.198Z,25.30
2023-10-09T09:21:23.601Z,24.10
2023-10-09T09:25:04.408Z,25.75
2023-10-09T09:28:56.147Z,28.65
2023-10-09T09:32:31.275Z,25.73
2023-10-09T09:35:57.021Z,23.30
2023-10-09T09:39:29.252Z,23.42
2023-10-09T09:43:05.808Z,26.80
2023-10-09T09:46:40.814Z,26.75
2023-10-09T09:50:14.619Z,23.33
2023-10-09T09:53:39.708Z,23.60
2023-10-09T09:57:11.952Z,26.50
2023-10-09T10:00:44.603Z,25.27
2023-10-09T10:04:21.680Z,24.35
2023-10-09T10:07:50.803Z,24.75
2023-10-09T10:11:49.627Z,22.95
2023-10-09T10:15:17.487Z,24.10
2023-10-09T10:19:22.362Z,23.63
2023-10-09T10:22:52.423Z,21.83
2023-10-09T10:26:31.400Z,21.20
2023-10-09T10:30:34.645Z,20.13
2023-10-09T10:34:07.848Z,17.35
2023-10-09T10:37:51.753Z,17.85
2023-10-09T10:41:23.797Z,20.38
2023-10-09T10:44:54.876Z,18.15
2023-10-09T10:49:01.938Z,17.55
2023-10-09T10:51:40.878Z,19.38
2023-10-09T10:54:28.876Z,22.00
2023-10-09T10:59:29.568Z,22.15
2023-10-09T11:02:15.312Z,19.52
2023-10-09T11:04:45.530Z,13.60
2023-10-09T11:07:12.354Z,14.20
2023-10-09T11:10:10.619Z,17.63
2023-10-09T11:12:43.095Z,19.85
2023-10-09T11:15:30.504Z,14.13
2023-10-09T11:18:06.403Z,17.90
2023-10-09T11:20:34.867Z,15.60
2023-10-09T11:23:13.613Z,18.17
2023-10-09T11:25:50.833Z,18.00
2023-10-09T11:28:49.103Z,14.02
2023-10-09T11:31:19.264Z,14.73
2023-10-09T11:33:50.073Z,15.23
2023-10-09T11:36:18.100Z,17.05
2023-10-09T11:38:50.387Z,15.23
2023-10-09T11:41:20.638Z,15.90
2023-10-09T11:43:53.933Z,13.45
2023-10-09T11:46:39.830Z,14.20
2023-10-09T11:49:22.116Z,18.45
2023-10-09T11:52:07.127Z,14.13
2023-10-09T11:54:34.585Z,17.92
2023-10-09T11:57:03.676Z,12.60
2023-10-09T11:59:35.537Z,15.40
2023-10-09T12:02:02.256Z,12.68
2023-10-09T12:04:31.483Z,12.40
2023-10-09T12:07:11.521Z,14.30
2023-10-09T12:09:41.118Z,11.07
2023-10-09T12:12:08.465Z,18.40
2023-10-09T12:14:36.364Z,16.92
2023-10-09T12:17:06.584Z,16.35
2023-10-09T12:19:36.848Z,17.00
2023-10-09T12:22:05.083Z,14.32
2023-10-09T12:24:32.126Z,15.15
2023-10-09T12:26:58.715Z,14.15
2023-10-09T12:29:25.275Z,14.43
2023-10-09T12:31:59.495Z,13.18
2023-10-09T12:34:27.754Z,14.50
2023-10-09T12:39:21.623Z,16.83
2023-10-09T12:41:48.303Z,12.68
2023-10-09T12:44:21.070Z,10.48
2023-10-09T12:46:53.899Z,11.50
2023-10-09T12:49:26.479Z,11.05
2023-10-09T12:51:54.032Z,11.95
2023-10-09T12:54:28.667Z,14.65
2023-10-09T12:56:56.290Z,10.98
2023-10-09T12:59:24.383Z,9.38
2023-10-09T13:04:25.148Z,18.65
2023-10-09T13:06:55.549Z,11.80
2023-10-09T13:09:44.069Z,12.10
2023-10-09T13:12:19.245Z,15.80
2023-10-09T13:14:48.614Z,12.07
2023-10-09T13:17:15.304Z,11.45
2023-10-09T13:19:41.919Z,19.10
2023-10-09T13:22:14.667Z,10.50
2023-10-09T13:24:41.428Z,15.80
2023-10-09T13:27:11.075Z,12.80
2023-10-09T13:29:41.244Z,13.75
2023-10-09T13:32:14.657Z,13.70
2023-10-09T13:34:45.687Z,15.07
2023-10-09T13:37:15.292Z,12.25
2023-10-09T13:39:53.606Z,13.45
2023-10-09T13:42:20.415Z,15.95
2023-10-09T13:44:49.854Z,15.32
2023-10-09T13:47:30.616Z,8.55
2023-10-09T13:49:58.603Z,11.20
2023-10-09T13:52:25.009Z,14.57
2023-10-09T13:54:51.760Z,12.10
2023-10-09T13:57:18.229Z,16.33
2023-10-09T13:59:50.642Z,12.93
2023-10-09T14:02:22.517Z,18.33
2023-10-09T14:04:49.385Z,10.40
2023-10-09T14:07:21.727Z,11.45
2023-10-09T14:10:08.540Z,11.75
2023-10-09T14:12:35.678Z,14.68
2023-10-09T14:15:04.898Z,12.57
2023-10-09T14:17:31.471Z,11.38
2023-10-09T14:20:17.256Z,12.35
2023-10-09T14:22:43.872Z,14.75
2023-10-09T14:25:16.205Z,15.75
2023-10-09T14:27:42.561Z,14.02
2023-10-09T14:30:13.968Z,11.93
2023-10-09T14:32:51.041Z,17.13
2023-10-09T14:35:17.674Z,16.30
2023-10-09T14:37:44.163Z,10.75
2023-10-09T14:40:14.538Z,14.27
2023-10-09T14:42:45.305Z,9.65
2023-10-09T14:45:16.728Z,12.60
2023-10-09T14:47:43.681Z,13.73
2023-10-09T14:50:11.286Z,12.77
2023-10-09T14:52:39.843Z,12.95
2023-10-09T14:55:07.140Z,18.02
2023-10-09T14:57:36.347Z,16.07
2023-10-09T15:00:08.726Z,20.05
2023-10-09T15:02:35.082Z,29.63
2023-10-09T15:05:01.946Z,20.30
2023-10-09T15:07:40.159Z,19.52
2023-10-09T15:10:10.395Z,11.13
2023-10-09T15:12:40.996Z,15.02
2023-10-09T15:15:18.467Z,12.77
2023-10-09T15:17:46.972Z,11.82
2023-10-09T15:20:16.683Z,16.63
2023-10-09T15:22:43.397Z,13.40
2023-10-09T15:25:10.134Z,13.95
2023-10-09T15:27:40.407Z,16.50
2023-10-09T15:30:09.203Z,11.88
2023-10-09T15:32:36.247Z,13.13
2023-10-09T15:35:03.818Z,14.70
2023-10-09T15:37:30.553Z,14.40
2023-10-09T15:39:56.890Z,15.60
2023-10-09T15:42:23.571Z,13.90
2023-10-09T15:44:56.033Z,13.52
2023-10-09T15:47:22.853Z,12.55
2023-10-09T15:49:50.127Z,11.27
2023-10-09T15:52:17.841Z,16.57
2023-10-09T15:54:45.467Z,16.00
2023-10-09T15:57:14.054Z,16.73
2023-10-09T15:59:40.911Z,16.30
2023-10-09T16:02:07.494Z,11.50
2023-10-09T16:04:35.192Z,12.75
2023-10-09T16:07:02.149Z,15.60
2023-10-09T16:09:30.734Z,12.20
2023-10-09T16:11:57.223Z,15.32
2023-10-09T16:14:24.491Z,11.90
2023-10-09T16:16:51.682Z,15.68
2023-10-09T16:19:18.711Z,13.32
2023-10-09T16:21:45.284Z,13.32
2023-10-09T16:24:11.891Z,12.05
2023-10-09T16:26:42.924Z,12.68
2023-10-09T16:29:10.593Z,15.50
2023-10-09T16:31:39.493Z,12.02
2023-10-09T16:34:10.500Z,15.45
2023-10-09T16:36:37.258Z,12.32
2023-10-09T16:39:19.651Z,14.25
2023-10-09T16:41:46.833Z,10.57
2023-10-09T16:44:17.496Z,18.98
2023-10-09T16:46:47.652Z,14.02
2023-10-09T16:49:14.755Z,14.23
2023-10-09T16:51:44.051Z,16.20
2023-10-09T16:54:16.279Z,11.27
2023-10-09T16:56:45.954Z,13.98
2023-10-09T16:59:16.096Z,12.45
2023-10-09T17:01:43.146Z,13.52
2023-10-09T17:04:19.073Z,17.13
2023-10-09T17:06:46.160Z,13.57
2023-10-09T17:09:15.280Z,15.32
2023-10-09T17:11:42.283Z,16.58
2023-10-09T17:14:13.982Z,14.30
2023-10-09T17:16:46.327Z,13.43
2023-10-09T17:19:15.276Z,15.27
2023-10-09T17:21:42.157Z,13.88
2023-10-09T17:24:12.410Z,12.57
2023-10-09T17:26:46.578Z,16.20
2023-10-09T17:29:13.865Z,16.67
2023-10-09T17:31:43.142Z,15.37
2023-10-09T17:34:09.720Z,15.32
2023-10-09T17:36:36.713Z,17.48
2023-10-09T17:39:06.003Z,14.18
2023-10-09T17:41:35.886Z,15.65
2023-10-09T17:44:06.315Z,18.60
2023-10-09T17:46:32.826Z,15.60
2023-10-09T17:49:00.457Z,18.40
2023-10-09T17:51:27.974Z,15.60
2023-10-09T17:53:54.481Z,15.68
2023-10-09T17:56:26.913Z,14.43
2023-10-09T17:58:54.608Z,13.52
2023-10-09T18:01:26.211Z,16.38
2023-10-09T18:03:53.119Z,16.30
2023-10-09T18:06:19.987Z,16.85
2023-10-09T18:08:49.080Z,11.93
2023-10-09T18:11:16.025Z,17.08
2023-10-09T18:13:42.782Z,16.45
2023-10-09T18:16:13.281Z,14.07
2023-10-09T18:18:45.268Z,16.10
2023-10-09T18:21:14.483Z,17.00
2023-10-09T18:23:45.723Z,13.50
2023-10-09T18:26:15.777Z,16.17
2023-10-09T18:28:42.923Z,12.48
2023-10-09T18:31:14.688Z,15.38
2023-10-09T18:33:42.422Z,17.45
2023-10-09T18:36:09.130Z,15.32
2023-10-09T18:38:39.533Z,16.92
2023-10-09T18:41:09.396Z,19.30
2023-10-09T18:43:41.609Z,17.85
2023-10-09T18:46:15.294Z,15.43
2023-10-09T18:48:41.841Z,14.02
2023-10-09T18:51:15.142Z,14.02
2023-10-09T18:53:41.843Z,16.40
2023-10-09T18:56:15.156Z,11.65
2023-10-09T18:58:45.644Z,17.30
2023-10-09T19:01:15.424Z,13.82
2023-10-09T19:03:42.586Z,12.90
2023-10-09T19:06:09.479Z,16.42
2023-10-09T19:08:35.976Z,13.13
2023-10-09T19:11:02.677Z,14.30
2023-10-09T19:13:30.898Z,16.83
2023-10-09T19:18:25.737Z,17.38
2023-10-09T19:20:54.059Z,9.57
2023-10-09T19:25:48.084Z,12.32
2023-10-09T19:28:16.315Z,16.02
2023-10-09T19:33:09.212Z,14.10
2023-10-09T19:35:35.880Z,16.90
2023-10-09T19:38:02.446Z,13.52
2023-10-09T19:40:29.936Z,15.48
2023-10-09T19:42:57.446Z,17.52
2023-10-09T19:45:23.804Z,14.63
2023-10-09T19:47:50.399Z,16.52
2023-10-09T19:50:16.980Z,14.40
2023-10-09T19:52:44.065Z,13.75
2023-10-09T19:55:10.598Z,13.95
2023-10-09T19:57:37.184Z,15.98
2023-10-09T20:00:08.215Z,14.30
2023-10-09T20:02:37.050Z,16.70
2023-10-09T20:05:03.864Z,16.70
2023-10-09T20:07:30.239Z,13.35
2023-10-09T20:09:59.422Z,18.10
2023-10-09T20:12:31.105Z,14.10
2023-10-09T20:14:58.017Z,17.98
2023-10-09T20:17:25.363Z,19.50
2023-10-09T20:19:54.394Z,19.17
2023-10-09T20:22:24.112Z,16.92
2023-10-09T20:24:50.480Z,16.80
2023-10-09T20:27:18.579Z,13.55
2023-10-09T20:29:45.046Z,21.85
2023-10-09T20:32:17.713Z,17.25
2023-10-09T20:34:45.260Z,17.15
2023-10-09T20:37:13.466Z,21.48
2023-10-09T20:39:41.915Z,17.10
2023-10-09T20:42:08.432Z,17.50
2023-10-09T20:44:36.583Z,18.02
2023-10-09T20:47:04.336Z,16.52
2023-10-09T20:49:33.098Z,19.02
2023-10-09T20:51:59.497Z,16.88
2023-10-09T20:54:26.512Z,20.80
2023-10-09T20:56:53.205Z,21.73
2023-10-09T20:59:19.866Z,22.48
2023-10-09T21:01:46.641Z,20.58
2023-10-09T21:04:13.408Z,23.50
2023-10-09T21:06:39.814Z,22.60
2023-10-09T21:09:08.180Z,20.48
2023-10-09T21:14:01.546Z,19.23
2023-10-09T21:16:28.032Z,22.75
2023-10-09T21:18:57.126Z,22.73
2023-10-09T21:21:24.787Z,22.67
2023-10-09T21:23:51.323Z,22.83
2023-10-09T21:26:19.019Z,20.30
2023-10-09T21:28:47.582Z,20.55
2023-10-09T21:31:16.883Z,22.75
2023-10-09T21:33:44.334Z,25.75
2023-10-09T21:36:10.837Z,17.70
2023-10-09T21:38:38.666Z,20.65
2023-10-09T21:41:13.508Z,22.00
2023-10-09T21:43:40.738Z,24.05
2023-10-09T21:46:08.199Z,20.00
2023-10-09T21:48:35.603Z,23.45
2023-10-09T21:51:01.967Z,17.17
2023-10-09T21:53:28.899Z,22.27
2023-10-09T21:56:04.912Z,23.88
2023-10-09T21:58:31.445Z,21.48
2023-10-09T22:00:57.922Z,26.85
2023-10-09T22:03:28.449Z,20.65
2023-10-09T22:05:57.176Z,22.58
2023-10-09T22:08:24.148Z,17.25
2023-10-09T22:10:50.795Z,26.95
2023-10-09T22:13:19.653Z,20.60
2023-10-09T22:15:49.530Z,19.90
2023-10-09T22:18:22.657Z,20.75
2023-10-09T22:20:49.497Z,23.05
2023-10-09T22:23:19.733Z,25.42
2023-10-09T22:25:56.871Z,28.10
2023-10-09T22:28:26.910Z,25.27
2023-10-09T22:30:57.352Z,25.38
2023-10-09T22:33:27.157Z,18.95
2023-10-09T22:35:56.482Z,25.77
2023-10-09T22:38:23.166Z,19.38
2023-10-09T22:40:50.031Z,18.30
2023-10-09T22:43:18.094Z,29.10
2023-10-09T22:45:44.673Z,20.17
2023-10-09T22:48:15.447Z,23.70
2023-10-09T22:50:49.006Z,23.63
2023-10-09T22:53:40.886Z,22.83
2023-10-09T22:56:08.382Z,24.13
2023-10-09T22:58:39.059Z,24.13
2023-10-09T23:01:13.817Z,23.90
2023-10-09T23:03:42.695Z,23.85
2023-10-09T23:06:14.648Z,25.35
2023-10-09T23:08:42.668Z,22.02
2023-10-09T23:11:15.632Z,21.42
2023-10-09T23:14:14.994Z,23.30
2023-10-09T23:16:57.965Z,20.45
2023-10-09T23:19:41.471Z,23.15
2023-10-09T23:22:09.124Z,20.42
2023-10-09T23:24:49.821Z,22.10
2023-10-09T23:27:39.297Z,24.92
2023-10-09T23:30:27.017Z,23.25
2023-10-09T23:33:09.040Z,25.70
2023-10-09T23:35:46.508Z,27.30
2023-10-09T23:38:19.895Z,22.93
2023-10-09T23:40:46.532Z,20.02
2023-10-09T23:43:14.405Z,19.65
2023-10-09T23:45:42.012Z,25.80
2023-10-09T23:48:24.887Z,26.87
2023-10-09T23:50:57.982Z,25.50
2023-10-09T23:53:29.878Z,24.25
2023-10-09T23:56:09.481Z,23.45
2023-10-09T23:58:36.575Z,27.88
